Time;durP1;ratioP1;P1;durP2;ratioP2;P2;SDS_P1;SDS_P2;PMS_P1;PMS_P2;Temp;Humidity;BMP_temperature;BMP_pressure;BME280_temperature;BME280_humidity;BME280_pressure;Samples;Min_cycle;Max_cycle;Signal;HPM_P1;HPM_P2
2022/06/20 00:00:43;;;;;;;0.70;0.60;;;;;;;;;;5036985;28;20835;-77
2022/06/20 00:03:19;;;;;;;0.80;0.70;;;;;;;;;;5037318;28;20466;-77
2022/06/20 00:05:48;;;;;;;0.70;0.60;;;;;;;;;;5037011;28;20521;-78
2022/06/20 00:08:17;;;;;;;0.80;0.70;;;;;;;;;;5036662;28;20451;-79
2022/06/20 00:10:45;;;;;;;0.70;0.63;;;;;;;;;;5054001;28;20442;-78
2022/06/20 00:13:17;;;;;;;0.70;0.70;;;;;;;;;;5054253;28;20431;-78
2022/06/20 00:15:46;;;;;;;0.90;0.80;;;;;;;;;;5053528;28;20440;-80
2022/06/20 00:18:14;;;;;;;0.70;0.60;;;;;;;;;;5047652;28;20463;-78
2022/06/20 00:20:41;;;;;;;0.70;0.60;;;;;;;;;;5036557;28;20585;-79
2022/06/20 00:23:09;;;;;;;1.13;1.03;;;;;;;;;;5052375;28;20423;-81
2022/06/20 00:25:36;;;;;;;0.80;0.70;;;;;;;;;;5053346;28;20465;-77
2022/06/20 00:28:03;;;;;;;0.70;0.60;;;;;;;;;;5052433;28;20554;-77
2022/06/20 00:30:30;;;;;;;0.70;0.70;;;;;;;;;;5069143;28;20932;-78
2022/06/20 00:32:57;;;;;;;0.70;0.60;;;;;;;;;;5052497;28;20756;-78
2022/06/20 00:35:25;;;;;;;0.70;0.70;;;;;;;;;;5052550;28;20537;-78
2022/06/20 00:37:53;;;;;;;2.17;1.17;;;;;;;;;;5052892;28;20541;-78
2022/06/20 00:40:26;;;;;;;0.70;0.70;;;;;;;;;;5052733;28;20546;-79
2022/06/20 00:42:55;;;;;;;0.73;0.70;;;;;;;;;;5052940;28;20811;-78
2022/06/20 00:45:23;;;;;;;0.73;0.70;;;;;;;;;;5053220;28;20559;-78
2022/06/20 00:47:51;;;;;;;0.70;0.60;;;;;;;;;;5053237;28;21001;-78
2022/06/20 00:50:19;;;;;;;0.70;0.60;;;;;;;;;;5052189;28;20427;-77
2022/06/20 00:52:51;;;;;;;0.97;0.97;;;;;;;;;;5036688;28;20464;-78
2022/06/20 00:55:20;;;;;;;0.70;0.60;;;;;;;;;;5053815;28;20993;-79
2022/06/20 00:57:49;;;;;;;0.70;0.60;;;;;;;;;;5050530;28;20527;-78
2022/06/20 01:00:17;;;;;;;0.70;0.70;;;;;;;;;;5049898;28;21006;-78
2022/06/20 01:02:46;;;;;;;0.70;0.60;;;;;;;;;;5048840;28;20514;-78
2022/06/20 01:05:16;;;;;;;0.70;0.60;;;;;;;;;;5034379;28;20449;-78
2022/06/20 01:07:47;;;;;;;0.70;0.60;;;;;;;;;;5052626;28;20481;-77
2022/06/20 01:10:17;;;;;;;0.70;0.60;;;;;;;;;;5054317;28;20426;-78
2022/06/20 01:12:48;;;;;;;0.70;0.60;;;;;;;;;;5053156;28;20410;-78
2022/06/20 01:15:16;;;;;;;0.70;0.60;;;;;;;;;;5052733;28;20432;-77
2022/06/20 01:17:44;;;;;;;0.70;0.70;;;;;;;;;;5035891;28;20451;-78
2022/06/20 01:20:18;;;;;;;0.80;0.80;;;;;;;;;;5053260;28;20493;-76
2022/06/20 01:22:47;;;;;;;0.70;0.60;;;;;;;;;;5052368;28;20466;-78
2022/06/20 01:25:32;;;;;;;0.70;0.60;;;;;;;;;;5052355;28;20428;-80
2022/06/20 01:28:01;;;;;;;0.70;0.60;;;;;;;;;;5053244;28;20506;-79
2022/06/20 01:30:30;;;;;;;0.70;0.60;;;;;;;;;;5052858;28;20935;-78
2022/06/20 01:32:57;;;;;;;0.80;0.80;;;;;;;;;;5036103;28;20444;-78
2022/06/20 01:38:11;;;;;;;0.70;0.70;;;;;;;;;;5036568;28;20435;-81
2022/06/20 01:40:39;;;;;;;0.70;0.60;;;;;;;;;;5052868;28;20521;-81
2022/06/20 01:43:14;;;;;;;0.70;0.60;;;;;;;;;;5052877;28;20486;-83
2022/06/20 01:45:58;;;;;;;0.80;0.80;;;;;;;;;;5037586;28;20415;-81
2022/06/20 01:48:27;;;;;;;0.70;0.60;;;;;;;;;;5056510;28;20441;-81
2022/06/20 01:50:56;;;;;;;0.70;0.63;;;;;;;;;;5054546;28;20840;-80
2022/06/20 01:53:25;;;;;;;0.70;0.60;;;;;;;;;;5040853;28;20521;-81
2022/06/20 01:55:54;;;;;;;0.70;0.60;;;;;;;;;;5037954;28;20961;-81
2022/06/20 01:58:25;;;;;;;0.70;0.60;;;;;;;;;;5037516;28;20431;-81
2022/06/20 02:00:53;;;;;;;0.70;0.60;;;;;;;;;;5052954;28;20435;-82
2022/06/20 02:03:20;;;;;;;0.70;0.70;;;;;;;;;;5057428;28;20477;-84
2022/06/20 02:05:48;;;;;;;0.70;0.60;;;;;;;;;;5057209;28;20455;-84
2022/06/20 02:08:16;;;;;;;0.70;0.60;;;;;;;;;;5056316;28;20930;-80
2022/06/20 02:10:46;;;;;;;0.70;0.60;;;;;;;;;;5055467;28;20536;-83
2022/06/20 02:13:13;;;;;;;0.70;0.60;;;;;;;;;;5055897;28;20443;-81
2022/06/20 02:15:42;;;;;;;0.70;0.60;;;;;;;;;;5072518;28;20425;-81
2022/06/20 02:18:09;;;;;;;0.80;0.80;;;;;;;;;;5072709;28;20538;-80
2022/06/20 02:20:45;;;;;;;0.70;0.60;;;;;;;;;;5057202;28;20437;-81
2022/06/20 02:23:14;;;;;;;0.70;0.70;;;;;;;;;;5052778;28;20481;-82
2022/06/20 02:25:45;;;;;;;0.70;0.70;;;;;;;;;;5055764;28;20542;-80
2022/06/20 02:28:17;;;;;;;0.70;0.70;;;;;;;;;;5055864;28;20481;-83
2022/06/20 02:30:46;;;;;;;0.70;0.60;;;;;;;;;;5055685;28;20490;-80
2022/06/20 02:33:16;;;;;;;0.70;0.60;;;;;;;;;;5039410;28;20449;-80
2022/06/20 02:35:44;;;;;;;0.70;0.60;;;;;;;;;;5055798;28;20440;-81
2022/06/20 02:38:12;;;;;;;0.70;0.60;;;;;;;;;;5055722;28;20451;-79
2022/06/20 02:40:42;;;;;;;0.70;0.60;;;;;;;;;;5053266;28;21010;-79
2022/06/20 02:43:14;;;;;;;0.70;0.60;;;;;;;;;;5055424;28;20464;-80
2022/06/20 02:45:43;;;;;;;0.80;0.80;;;;;;;;;;5054635;28;20412;-80
2022/06/20 02:48:15;;;;;;;0.70;0.60;;;;;;;;;;5055680;28;20451;-79
2022/06/20 02:50:47;;;;;;;0.70;0.60;;;;;;;;;;5055614;28;20480;-79
2022/06/20 02:53:18;;;;;;;0.70;0.60;;;;;;;;;;5056718;28;20980;-80
2022/06/20 02:55:47;;;;;;;0.70;0.60;;;;;;;;;;5039458;28;20447;-80
2022/06/20 02:58:19;;;;;;;0.70;0.60;;;;;;;;;;5055500;28;20423;-80
2022/06/20 03:00:51;;;;;;;0.70;0.60;;;;;;;;;;5039176;28;20457;-80
2022/06/20 03:03:29;;;;;;;0.67;0.60;;;;;;;;;;5055119;28;20475;-80
2022/06/20 03:05:59;;;;;;;0.70;0.60;;;;;;;;;;5055170;28;20526;-80
2022/06/20 03:08:27;;;;;;;0.97;0.97;;;;;;;;;;5056230;28;20436;-79
2022/06/20 03:10:56;;;;;;;0.70;0.60;;;;;;;;;;5054936;28;20445;-79
2022/06/20 03:13:24;;;;;;;0.70;0.60;;;;;;;;;;5054786;28;20428;-79
2022/06/20 03:15:52;;;;;;;0.70;0.67;;;;;;;;;;5055100;28;20482;-81
2022/06/20 03:18:24;;;;;;;0.70;0.60;;;;;;;;;;5054901;28;20956;-80
2022/06/20 03:21:01;;;;;;;0.70;0.60;;;;;;;;;;5038539;28;20554;-80
2022/06/20 03:23:34;;;;;;;0.70;0.60;;;;;;;;;;5056088;28;20452;-80
2022/06/20 03:26:02;;;;;;;0.67;0.60;;;;;;;;;;5071631;28;20459;-81
2022/06/20 03:28:31;;;;;;;0.70;0.70;;;;;;;;;;5055362;28;20448;-81
2022/06/20 03:31:06;;;;;;;0.70;0.60;;;;;;;;;;5071859;28;20413;-80
2022/06/20 03:33:37;;;;;;;0.70;0.60;;;;;;;;;;5054942;28;20485;-80
2022/06/20 03:36:08;;;;;;;0.70;0.60;;;;;;;;;;5054541;28;20864;-81
2022/06/20 03:38:37;;;;;;;0.70;0.60;;;;;;;;;;5055338;28;20448;-82
2022/06/20 03:41:05;;;;;;;0.70;0.60;;;;;;;;;;5071403;28;20435;-81
2022/06/20 03:43:33;;;;;;;0.70;0.60;;;;;;;;;;5054401;28;21044;-80
2022/06/20 03:46:01;;;;;;;0.70;0.60;;;;;;;;;;5055168;28;20456;-80
2022/06/20 03:48:29;;;;;;;0.70;0.70;;;;;;;;;;5054462;28;20537;-80
2022/06/20 03:50:58;;;;;;;0.70;0.60;;;;;;;;;;5055650;28;21038;-80
2022/06/20 03:53:33;;;;;;;0.70;0.70;;;;;;;;;;5054458;28;20424;-81
2022/06/20 03:56:21;;;;;;;0.70;0.60;;;;;;;;;;5053640;28;20555;-80
2022/06/20 03:58:50;;;;;;;0.67;0.60;;;;;;;;;;5070768;28;20819;-80
2022/06/20 04:01:21;;;;;;;0.70;0.60;;;;;;;;;;5054893;28;20650;-80
2022/06/20 04:03:52;;;;;;;0.70;0.57;;;;;;;;;;5053236;28;20483;-80
2022/06/20 04:06:27;;;;;;;0.70;0.60;;;;;;;;;;5053477;28;20465;-79
2022/06/20 04:11:45;;;;;;;0.70;0.70;;;;;;;;;;5053902;28;20439;-79
2022/06/20 04:14:13;;;;;;;0.70;0.70;;;;;;;;;;5053698;28;20437;-79
2022/06/20 04:16:45;;;;;;;0.70;0.60;;;;;;;;;;5053829;28;20949;-80
2022/06/20 04:19:14;;;;;;;0.70;0.60;;;;;;;;;;5053623;28;20472;-80
2022/06/20 04:21:46;;;;;;;0.70;0.67;;;;;;;;;;5053162;28;20475;-80
2022/06/20 04:24:19;;;;;;;0.70;0.60;;;;;;;;;;5053689;28;20434;-80
2022/06/20 04:26:51;;;;;;;0.70;0.70;;;;;;;;;;5055068;28;20458;-79
2022/06/20 04:29:20;;;;;;;0.67;0.60;;;;;;;;;;5036985;28;20447;-79
2022/06/20 04:31:52;;;;;;;0.70;0.60;;;;;;;;;;5053447;28;20468;-79
2022/06/20 04:34:21;;;;;;;0.70;0.60;;;;;;;;;;5054958;28;20421;-79
2022/06/20 04:36:50;;;;;;;0.70;0.70;;;;;;;;;;5069670;28;20486;-79
2022/06/20 04:39:23;;;;;;;0.70;0.60;;;;;;;;;;5054444;28;20954;-79
2022/06/20 04:41:54;;;;;;;0.60;0.60;;;;;;;;;;5052742;28;20443;-79
2022/06/20 04:44:27;;;;;;;0.70;0.60;;;;;;;;;;5055070;28;20923;-79
2022/06/20 04:46:59;;;;;;;0.70;0.60;;;;;;;;;;5054659;28;20920;-79
2022/06/20 04:49:26;;;;;;;0.70;0.60;;;;;;;;;;5052800;28;20460;-80
2022/06/20 04:51:56;;;;;;;0.70;0.60;;;;;;;;;;5047979;28;20501;-80
2022/06/20 04:54:24;;;;;;;0.70;0.60;;;;;;;;;;5053423;28;20882;-77
2022/06/20 04:56:53;;;;;;;0.70;0.60;;;;;;;;;;5053212;28;20452;-79
2022/06/20 04:59:26;;;;;;;0.70;0.60;;;;;;;;;;5054265;28;20430;-79
2022/06/20 05:01:53;;;;;;;0.70;0.57;;;;;;;;;;5054111;28;20822;-79
2022/06/20 05:04:24;;;;;;;0.70;0.60;;;;;;;;;;5053194;28;21014;-80
2022/06/20 05:06:51;;;;;;;0.70;0.60;;;;;;;;;;5053145;28;20451;-81
2022/06/20 05:09:22;;;;;;;0.70;0.70;;;;;;;;;;5035933;28;20425;-80
2022/06/20 05:11:57;;;;;;;0.70;0.60;;;;;;;;;;5052886;28;20852;-81
2022/06/20 05:14:28;;;;;;;0.70;0.70;;;;;;;;;;5052765;28;20540;-81
2022/06/20 05:17:17;;;;;;;0.67;0.60;;;;;;;;;;5052933;28;20432;-80
2022/06/20 05:19:46;;;;;;;0.70;0.60;;;;;;;;;;5053098;28;20493;-80
2022/06/20 05:22:16;;;;;;;0.70;0.60;;;;;;;;;;5036208;28;20472;-78
2022/06/20 05:24:44;;;;;;;0.70;0.60;;;;;;;;;;5054083;28;20412;-81
2022/06/20 05:27:15;;;;;;;0.70;0.60;;;;;;;;;;5069230;28;20478;-81
2022/06/20 05:29:43;;;;;;;0.70;0.60;;;;;;;;;;5052585;28;20462;-81
2022/06/20 05:32:13;;;;;;;0.70;0.60;;;;;;;;;;5069533;28;20929;-80
2022/06/20 05:34:44;;;;;;;0.70;0.60;;;;;;;;;;5053913;28;20857;-81
2022/06/20 05:37:20;;;;;;;0.70;0.60;;;;;;;;;;5052303;28;20477;-80
2022/06/20 05:39:49;;;;;;;0.70;0.60;;;;;;;;;;5069575;28;20432;-80
2022/06/20 05:42:19;;;;;;;0.70;0.60;;;;;;;;;;5052762;28;20451;-80
2022/06/20 05:44:46;;;;;;;0.70;0.63;;;;;;;;;;5069959;28;20408;-80
2022/06/20 05:47:16;;;;;;;0.70;0.60;;;;;;;;;;5052758;28;20450;-80
2022/06/20 05:49:46;;;;;;;0.70;0.60;;;;;;;;;;5052734;28;20445;-79
2022/06/20 05:52:16;;;;;;;0.70;0.60;;;;;;;;;;5040030;28;20546;-81
2022/06/20 05:54:46;;;;;;;0.60;0.60;;;;;;;;;;5032938;28;20529;-81
2022/06/20 05:57:14;;;;;;;0.70;0.60;;;;;;;;;;5033798;28;20436;-80
2022/06/20 05:59:44;;;;;;;0.70;0.60;;;;;;;;;;5033325;28;20527;-80
2022/06/20 06:02:17;;;;;;;0.67;0.60;;;;;;;;;;5032598;28;20438;-81
2022/06/20 06:04:45;;;;;;;0.70;0.70;;;;;;;;;;5033855;28;20895;-80
2022/06/20 06:07:13;;;;;;;0.70;0.60;;;;;;;;;;5034437;28;20459;-81
2022/06/20 06:09:44;;;;;;;0.63;0.60;;;;;;;;;;5034397;28;20964;-80
2022/06/20 06:12:13;;;;;;;0.70;0.60;;;;;;;;;;5032965;28;20445;-80
2022/06/20 06:14:45;;;;;;;0.70;0.60;;;;;;;;;;5032782;28;20553;-81
2022/06/20 06:17:16;;;;;;;0.60;0.60;;;;;;;;;;5049492;28;20441;-81
2022/06/20 06:20:10;;;;;;;0.60;0.60;;;;;;;;;;5034663;28;20517;-80
2022/06/20 06:22:38;;;;;;;0.70;0.60;;;;;;;;;;5052298;28;20456;-79
2022/06/20 06:25:08;;;;;;;0.70;0.60;;;;;;;;;;5057834;28;20932;-78
2022/06/20 06:27:39;;;;;;;0.70;0.60;;;;;;;;;;5056134;28;20470;-79
2022/06/20 06:30:12;;;;;;;0.70;0.60;;;;;;;;;;5056099;28;20454;-80
2022/06/20 06:32:40;;;;;;;0.70;0.60;;;;;;;;;;5040820;28;20432;-79
2022/06/20 06:35:14;;;;;;;0.70;0.60;;;;;;;;;;5056443;28;20433;-79
2022/06/20 06:37:44;;;;;;;0.70;0.60;;;;;;;;;;5056223;28;20495;-80
2022/06/20 06:40:16;;;;;;;0.63;0.60;;;;;;;;;;5049300;28;20440;-80
2022/06/20 06:42:43;;;;;;;0.70;0.60;;;;;;;;;;5056918;28;20430;-81
2022/06/20 06:45:15;;;;;;;0.70;0.60;;;;;;;;;;5055747;28;20428;-81
2022/06/20 06:47:45;;;;;;;0.70;0.60;;;;;;;;;;5055567;28;20440;-80
2022/06/20 06:50:17;;;;;;;0.70;0.60;;;;;;;;;;5055499;28;20478;-80
2022/06/20 06:52:45;;;;;;;0.70;0.60;;;;;;;;;;5056130;28;20444;-80
2022/06/20 06:55:20;;;;;;;0.70;0.63;;;;;;;;;;5055817;28;20541;-79
2022/06/20 06:57:49;;;;;;;0.70;0.60;;;;;;;;;;5072247;28;20408;-79
2022/06/20 07:00:29;;;;;;;0.63;0.50;;;;;;;;;;5056408;28;20432;-80
2022/06/20 07:02:57;;;;;;;0.70;0.60;;;;;;;;;;5056988;28;20475;-80
2022/06/20 07:05:29;;;;;;;0.70;0.60;;;;;;;;;;5055017;28;20428;-80
2022/06/20 07:07:59;;;;;;;0.70;0.60;;;;;;;;;;5057063;28;20413;-79
2022/06/20 07:10:28;;;;;;;0.70;0.60;;;;;;;;;;5055330;28;20467;-81
2022/06/20 07:12:57;;;;;;;0.60;0.60;;;;;;;;;;5055236;28;20435;-79
2022/06/20 07:15:25;;;;;;;0.70;0.60;;;;;;;;;;5056781;28;20448;-80
2022/06/20 07:17:54;;;;;;;0.60;0.60;;;;;;;;;;5055145;28;20570;-81
2022/06/20 07:20:22;;;;;;;0.63;0.60;;;;;;;;;;5038820;28;20462;-81
2022/06/20 07:22:49;;;;;;;0.60;0.60;;;;;;;;;;5054962;28;20543;-80
2022/06/20 07:25:19;;;;;;;0.70;0.60;;;;;;;;;;5071851;28;20462;-80
2022/06/20 07:27:48;;;;;;;0.60;0.60;;;;;;;;;;5054733;28;20490;-80
2022/06/20 07:30:17;;;;;;;0.70;0.70;;;;;;;;;;5056049;28;20751;-79
2022/06/20 07:32:48;;;;;;;0.60;0.60;;;;;;;;;;5055482;28;20817;-80
2022/06/20 07:35:18;;;;;;;0.70;0.60;;;;;;;;;;5054656;28;20479;-81
2022/06/20 07:37:48;;;;;;;0.70;0.70;;;;;;;;;;5070729;28;20441;-79
2022/06/20 07:40:18;;;;;;;0.70;0.70;;;;;;;;;;5054170;28;20547;-80
2022/06/20 07:42:48;;;;;;;0.60;0.60;;;;;;;;;;5054257;28;20432;-80
2022/06/20 07:45:18;;;;;;;0.70;0.60;;;;;;;;;;5054461;28;20524;-79
2022/06/20 07:47:50;;;;;;;0.70;0.70;;;;;;;;;;5054450;28;20440;-79
2022/06/20 07:50:31;;;;;;;0.70;0.60;;;;;;;;;;5055651;28;20416;-79
2022/06/20 07:53:06;;;;;;;0.70;0.60;;;;;;;;;;5055405;28;20436;-79
2022/06/20 07:55:34;;;;;;;0.63;0.60;;;;;;;;;;5070924;28;20422;-79
2022/06/20 07:58:03;;;;;;;1.07;0.97;;;;;;;;;;5054383;28;20452;-79
2022/06/20 08:00:34;;;;;;;0.80;0.80;;;;;;;;;;5054237;28;20447;-79
2022/06/20 08:03:06;;;;;;;0.70;0.60;;;;;;;;;;5053653;28;20463;-79
2022/06/20 08:05:37;;;;;;;0.70;0.60;;;;;;;;;;5070598;28;20412;-79
2022/06/20 08:08:06;;;;;;;0.70;0.70;;;;;;;;;;5070769;28;20468;-79
2022/06/20 08:10:36;;;;;;;0.60;0.60;;;;;;;;;;5054839;28;20457;-79
2022/06/20 08:13:05;;;;;;;0.70;0.70;;;;;;;;;;5053945;28;20486;-79
2022/06/20 08:15:33;;;;;;;0.70;0.60;;;;;;;;;;5055116;28;20514;-79
2022/06/20 08:18:00;;;;;;;0.70;0.60;;;;;;;;;;5055066;28;20420;-80
2022/06/20 08:20:32;;;;;;;0.70;0.60;;;;;;;;;;5070673;28;20425;-79
2022/06/20 08:23:00;;;;;;;0.70;0.60;;;;;;;;;;5053574;28;20829;-79
2022/06/20 08:25:31;;;;;;;0.70;0.60;;;;;;;;;;5037091;28;20802;-79
2022/06/20 08:28:00;;;;;;;0.70;0.70;;;;;;;;;;5055106;28;20773;-80
2022/06/20 08:30:29;;;;;;;0.80;0.70;;;;;;;;;;5054346;28;20437;-79
2022/06/20 08:32:59;;;;;;;0.70;0.60;;;;;;;;;;5054329;28;20465;-80
2022/06/20 08:35:30;;;;;;;1.63;1.23;;;;;;;;;;5053209;28;20435;-80
2022/06/20 08:38:03;;;;;;;0.70;0.67;;;;;;;;;;5053094;28;20442;-79
2022/06/20 08:40:44;;;;;;;0.70;0.70;;;;;;;;;;5054835;28;20457;-79
2022/06/20 08:43:24;;;;;;;0.70;0.70;;;;;;;;;;5053661;28;20417;-81
2022/06/20 08:46:06;;;;;;;0.70;0.60;;;;;;;;;;5053195;28;20528;-79
2022/06/20 08:48:51;;;;;;;0.70;0.70;;;;;;;;;;5054533;28;20474;-80
2022/06/20 08:51:32;;;;;;;0.70;0.70;;;;;;;;;;5036400;28;20467;-79
2022/06/20 08:54:14;;;;;;;0.70;0.60;;;;;;;;;;5010506;28;20493;-80
2022/06/20 08:56:48;;;;;;;0.70;0.60;;;;;;;;;;5053823;28;20524;-79
2022/06/20 08:59:19;;;;;;;0.70;0.60;;;;;;;;;;5043378;28;20540;-79
2022/06/20 09:01:51;;;;;;;0.70;0.60;;;;;;;;;;5030911;28;20464;-80
2022/06/20 09:04:35;;;;;;;0.70;0.60;;;;;;;;;;5032593;28;20657;-79
2022/06/20 09:07:14;;;;;;;0.80;0.70;;;;;;;;;;5032784;28;20450;-79
2022/06/20 09:09:59;;;;;;;0.70;0.60;;;;;;;;;;5047979;28;20433;-79
2022/06/20 09:12:42;;;;;;;0.70;0.60;;;;;;;;;;5032707;28;20459;-80
2022/06/20 09:15:15;;;;;;;0.70;0.70;;;;;;;;;;5032692;28;20405;-80
2022/06/20 09:17:54;;;;;;;0.70;0.70;;;;;;;;;;5016950;28;20452;-80
2022/06/20 09:20:25;;;;;;;0.70;0.60;;;;;;;;;;5016581;28;20435;-80
2022/06/20 09:23:10;;;;;;;0.70;0.60;;;;;;;;;;5051329;28;20890;-79
2022/06/20 09:25:40;;;;;;;0.70;0.70;;;;;;;;;;5052720;28;20943;-80
2022/06/20 09:28:16;;;;;;;0.70;0.60;;;;;;;;;;5036288;28;21047;-79
2022/06/20 09:30:48;;;;;;;0.80;0.70;;;;;;;;;;5054204;28;20989;-79
2022/06/20 09:33:33;;;;;;;0.70;0.70;;;;;;;;;;5052930;28;20442;-81
2022/06/20 09:36:22;;;;;;;0.80;0.70;;;;;;;;;;5052333;28;20461;-80
2022/06/20 09:38:57;;;;;;;1.30;1.20;;;;;;;;;;5052381;28;20939;-79
2022/06/20 09:41:30;;;;;;;0.73;0.70;;;;;;;;;;5052507;28;20535;-79
2022/06/20 09:44:17;;;;;;;0.70;0.60;;;;;;;;;;5035740;28;21010;-79
2022/06/20 09:46:54;;;;;;;0.70;0.60;;;;;;;;;;5053564;28;20796;-79
2022/06/20 09:49:26;;;;;;;0.70;0.60;;;;;;;;;;5053474;28;20419;-79
2022/06/20 09:51:57;;;;;;;0.70;0.70;;;;;;;;;;5052923;28;20459;-79
2022/06/20 09:54:26;;;;;;;0.70;0.70;;;;;;;;;;5051751;28;20440;-78
2022/06/20 09:57:09;;;;;;;0.70;0.60;;;;;;;;;;5055850;28;20439;-80
2022/06/20 09:59:42;;;;;;;0.70;0.60;;;;;;;;;;5037626;28;20490;-79
2022/06/20 10:02:12;;;;;;;0.70;0.70;;;;;;;;;;5053508;28;20458;-79
2022/06/20 10:04:44;;;;;;;0.80;0.70;;;;;;;;;;5054203;28;20560;-79
2022/06/20 10:07:32;;;;;;;1.13;1.03;;;;;;;;;;5055209;28;20490;-79
2022/06/20 10:10:07;;;;;;;0.80;0.70;;;;;;;;;;5057320;28;20404;-78
2022/06/20 10:12:38;;;;;;;0.80;0.70;;;;;;;;;;5055545;28;20934;-78
2022/06/20 10:15:10;;;;;;;0.80;0.80;;;;;;;;;;5055683;28;20440;-78
2022/06/20 10:17:41;;;;;;;0.80;0.73;;;;;;;;;;5057236;28;20432;-77
2022/06/20 10:20:13;;;;;;;0.80;0.70;;;;;;;;;;5072169;28;20431;-77
2022/06/20 10:22:45;;;;;;;0.70;0.70;;;;;;;;;;5071752;28;20449;-78
2022/06/20 10:25:23;;;;;;;0.70;0.60;;;;;;;;;;5055464;28;20503;-79
2022/06/20 10:28:13;;;;;;;0.77;0.70;;;;;;;;;;5056712;28;20421;-78
2022/06/20 10:30:45;;;;;;;0.70;0.60;;;;;;;;;;5039080;28;20459;-78
2022/06/20 10:33:20;;;;;;;0.80;0.73;;;;;;;;;;5055085;28;20439;-78
2022/06/20 10:35:53;;;;;;;0.80;0.73;;;;;;;;;;5055660;28;20460;-78
2022/06/20 10:38:26;;;;;;;0.80;0.70;;;;;;;;;;5055145;28;20415;-78
2022/06/20 10:40:59;;;;;;;0.70;0.70;;;;;;;;;;5055763;28;20410;-78
2022/06/20 10:43:35;;;;;;;0.70;0.70;;;;;;;;;;5057112;28;20899;-78
2022/06/20 10:46:08;;;;;;;0.70;0.60;;;;;;;;;;5055635;28;20470;-79
2022/06/20 10:48:51;;;;;;;0.80;0.80;;;;;;;;;;5055812;28;20976;-78
2022/06/20 10:51:22;;;;;;;0.70;0.70;;;;;;;;;;5054853;28;20970;-77
2022/06/20 10:53:56;;;;;;;0.70;0.60;;;;;;;;;;5036797;28;20435;-78
2022/06/20 10:56:29;;;;;;;0.70;0.60;;;;;;;;;;5035246;28;20492;-77
2022/06/20 10:59:04;;;;;;;0.73;0.63;;;;;;;;;;5035056;28;20441;-79
2022/06/20 11:01:37;;;;;;;0.80;0.70;;;;;;;;;;5036803;28;20424;-77
2022/06/20 11:04:30;;;;;;;1.00;0.90;;;;;;;;;;5035335;28;20436;-77
2022/06/20 11:07:04;;;;;;;0.70;0.60;;;;;;;;;;5033731;28;21067;-78
2022/06/20 11:09:35;;;;;;;0.70;0.67;;;;;;;;;;5051529;28;20429;-78
2022/06/20 11:12:05;;;;;;;0.77;0.70;;;;;;;;;;5036614;28;20439;-78
2022/06/20 11:14:39;;;;;;;0.70;0.70;;;;;;;;;;5036378;28;20416;-77
2022/06/20 11:17:17;;;;;;;1.00;0.90;;;;;;;;;;5035870;28;20461;-77
2022/06/20 11:19:48;;;;;;;0.73;0.70;;;;;;;;;;5035513;28;20439;-79
2022/06/20 11:22:20;;;;;;;1.17;1.00;;;;;;;;;;5049733;28;21253;-77
2022/06/20 11:24:50;;;;;;;0.80;0.73;;;;;;;;;;5050120;28;20478;-77
2022/06/20 11:27:44;;;;;;;0.70;0.60;;;;;;;;;;5054761;28;20458;-76
2022/06/20 11:30:15;;;;;;;0.70;0.60;;;;;;;;;;5054881;28;20455;-79
2022/06/20 11:33:10;;;;;;;0.80;0.80;;;;;;;;;;5071433;28;20412;-78
2022/06/20 11:35:48;;;;;;;0.90;0.90;;;;;;;;;;5054373;28;20498;-77
2022/06/20 11:38:30;;;;;;;0.80;0.70;;;;;;;;;;5054706;28;20411;-78
2022/06/20 11:41:00;;;;;;;0.70;0.70;;;;;;;;;;5054650;28;20486;-79
2022/06/20 11:43:54;;;;;;;0.80;0.70;;;;;;;;;;5055936;28;20466;-78
2022/06/20 11:46:34;;;;;;;0.70;0.60;;;;;;;;;;5054125;28;20499;-80
2022/06/20 11:49:08;;;;;;;0.70;0.60;;;;;;;;;;5054680;28;20431;-79
2022/06/20 11:51:40;;;;;;;0.80;0.60;;;;;;;;;;5055042;28;20448;-80
2022/06/20 11:54:12;;;;;;;0.70;0.60;;;;;;;;;;5053808;28;20514;-79
2022/06/20 11:56:44;;;;;;;0.80;0.80;;;;;;;;;;5055005;28;20451;-79
2022/06/20 11:59:18;;;;;;;0.77;0.60;;;;;;;;;;5053779;28;20892;-80
2022/06/20 12:01:49;;;;;;;0.80;0.70;;;;;;;;;;5038271;28;20466;-82
2022/06/20 12:04:20;;;;;;;0.70;0.60;;;;;;;;;;5054188;28;20833;-81
2022/06/20 12:06:50;;;;;;;0.80;0.70;;;;;;;;;;5053824;28;20464;-82
2022/06/20 12:09:21;;;;;;;1.43;0.90;;;;;;;;;;5053702;28;20444;-81
2022/06/20 12:11:55;;;;;;;0.80;0.80;;;;;;;;;;5053866;28;20956;-83
2022/06/20 12:14:28;;;;;;;0.80;0.77;;;;;;;;;;5055664;28;20978;-84
2022/06/20 12:17:00;;;;;;;0.80;0.80;;;;;;;;;;5037772;28;20428;-84
2022/06/20 12:25:30;;;;;;;0.70;0.60;;;;;;;;;;5052325;28;20446;-85
2022/06/20 12:27:57;;;;;;;0.70;0.60;;;;;;;;;;5033097;28;20432;-84
2022/06/20 12:30:24;;;;;;;0.70;0.70;;;;;;;;;;5034058;28;20451;-84
2022/06/20 12:32:54;;;;;;;0.80;0.70;;;;;;;;;;5017679;28;20477;-84
2022/06/20 12:35:27;;;;;;;0.80;0.70;;;;;;;;;;5034942;28;20405;-83
2022/06/20 12:37:56;;;;;;;0.80;0.70;;;;;;;;;;5035103;28;20412;-84
2022/06/20 12:40:26;;;;;;;0.80;0.70;;;;;;;;;;5035019;28;20934;-84
2022/06/20 12:42:55;;;;;;;0.70;0.60;;;;;;;;;;5033511;28;20451;-83
2022/06/20 12:45:41;;;;;;;0.70;0.60;;;;;;;;;;5034844;28;20552;-84
2022/06/20 12:48:14;;;;;;;0.70;0.70;;;;;;;;;;5037417;28;20448;-83
2022/06/20 12:50:45;;;;;;;0.70;0.60;;;;;;;;;;5049250;28;20948;-82
2022/06/20 12:53:18;;;;;;;0.70;0.60;;;;;;;;;;5052861;28;20445;-83
2022/06/20 12:55:52;;;;;;;0.70;0.70;;;;;;;;;;5052883;28;20440;-82
2022/06/20 12:58:34;;;;;;;0.70;0.60;;;;;;;;;;5052992;28;20424;-82
2022/06/20 13:01:04;;;;;;;0.70;0.50;;;;;;;;;;5049888;28;20448;-80
2022/06/20 13:03:52;;;;;;;0.70;0.60;;;;;;;;;;5053168;28;20451;-81
2022/06/20 13:06:33;;;;;;;0.70;0.60;;;;;;;;;;5022946;28;20483;-81
2022/06/20 13:09:04;;;;;;;0.80;0.60;;;;;;;;;;5053314;28;20442;-82
2022/06/20 13:11:34;;;;;;;0.70;0.60;;;;;;;;;;5054671;28;20487;-83
2022/06/20 13:14:13;;;;;;;0.70;0.60;;;;;;;;;;5053645;28;20452;-82
2022/06/20 13:16:45;;;;;;;0.70;0.50;;;;;;;;;;5052862;28;20546;-82
2022/06/20 13:19:20;;;;;;;0.70;0.50;;;;;;;;;;5053569;28;20440;-84
2022/06/20 13:21:49;;;;;;;0.70;0.50;;;;;;;;;;5027384;28;20460;-83
2022/06/20 13:24:22;;;;;;;0.80;0.70;;;;;;;;;;5032342;28;20457;-82
2022/06/20 13:26:53;;;;;;;0.70;0.50;;;;;;;;;;5033220;28;20559;-81
2022/06/20 13:29:29;;;;;;;0.70;0.50;;;;;;;;;;5032056;28;20453;-83
2022/06/20 13:31:58;;;;;;;0.70;0.50;;;;;;;;;;5033196;28;20512;-79
2022/06/20 13:34:34;;;;;;;0.70;0.60;;;;;;;;;;5032608;28;20417;-79
2022/06/20 13:37:21;;;;;;;1.20;1.10;;;;;;;;;;5032171;28;20468;-81
2022/06/20 13:39:50;;;;;;;0.70;0.50;;;;;;;;;;5032464;28;20441;-80
2022/06/20 13:42:25;;;;;;;0.70;0.50;;;;;;;;;;5016481;28;20498;-81
2022/06/20 13:44:56;;;;;;;0.70;0.50;;;;;;;;;;5032288;28;20453;-81
2022/06/20 13:47:24;;;;;;;0.70;0.50;;;;;;;;;;5032306;28;20413;-81
2022/06/20 13:50:02;;;;;;;0.97;0.63;;;;;;;;;;5016190;28;20487;-80
2022/06/20 13:52:37;;;;;;;0.80;0.70;;;;;;;;;;5047082;28;20574;-81
2022/06/20 13:55:13;;;;;;;0.77;0.63;;;;;;;;;;5051740;28;20988;-79
2022/06/20 13:57:43;;;;;;;1.00;0.60;;;;;;;;;;5035195;28;20431;-81
2022/06/20 14:00:18;;;;;;;0.70;0.60;;;;;;;;;;5036669;28;20426;-81
2022/06/20 14:02:47;;;;;;;0.80;0.63;;;;;;;;;;5053428;28;20783;-81
2022/06/20 14:05:18;;;;;;;0.80;0.63;;;;;;;;;;5052346;28;20468;-80
2022/06/20 14:07:49;;;;;;;0.70;0.60;;;;;;;;;;5052349;28;20474;-81
2022/06/20 14:10:21;;;;;;;0.80;0.70;;;;;;;;;;5036006;28;21015;-80
2022/06/20 14:12:50;;;;;;;0.70;0.60;;;;;;;;;;5052147;28;20826;-79
2022/06/20 14:15:20;;;;;;;0.70;0.60;;;;;;;;;;5068816;28;20511;-79
2022/06/20 14:17:50;;;;;;;0.70;0.60;;;;;;;;;;5052451;28;20459;-80
2022/06/20 14:20:20;;;;;;;0.70;0.50;;;;;;;;;;5065429;28;20443;-79
2022/06/20 14:22:50;;;;;;;0.70;0.50;;;;;;;;;;5052265;28;20878;-82
2022/06/20 14:25:23;;;;;;;0.77;0.60;;;;;;;;;;5052219;28;20460;-80
2022/06/20 14:27:56;;;;;;;0.80;0.60;;;;;;;;;;5049992;28;20470;-81
2022/06/20 14:30:24;;;;;;;0.80;0.67;;;;;;;;;;5051357;28;20505;-80
2022/06/20 14:32:55;;;;;;;0.70;0.50;;;;;;;;;;5051723;28;20483;-82
2022/06/20 14:35:24;;;;;;;0.80;0.70;;;;;;;;;;5052336;28;20476;-78
2022/06/20 14:37:56;;;;;;;0.70;0.50;;;;;;;;;;5052258;28;20940;-80
2022/06/20 14:40:25;;;;;;;0.70;0.50;;;;;;;;;;5051424;28;20487;-78
2022/06/20 14:43:00;;;;;;;0.70;0.60;;;;;;;;;;5071686;28;20431;-78
2022/06/20 14:45:31;;;;;;;0.77;0.67;;;;;;;;;;5055569;28;20991;-80
2022/06/20 14:48:00;;;;;;;0.70;0.50;;;;;;;;;;5072781;28;20416;-81
2022/06/20 14:50:28;;;;;;;0.70;0.50;;;;;;;;;;5057144;28;20436;-81
2022/06/20 14:52:59;;;;;;;0.70;0.50;;;;;;;;;;5054759;28;20448;-79
2022/06/20 14:55:39;;;;;;;1.20;1.03;;;;;;;;;;5056558;28;20897;-79
2022/06/20 14:58:13;;;;;;;0.80;0.77;;;;;;;;;;5038470;28;20486;-80
2022/06/20 15:00:43;;;;;;;0.70;0.50;;;;;;;;;;5055390;28;20436;-81
2022/06/20 15:03:18;;;;;;;0.80;0.60;;;;;;;;;;5071070;28;20520;-80
2022/06/20 15:05:48;;;;;;;0.70;0.50;;;;;;;;;;5042953;28;20468;-81
2022/06/20 15:08:19;;;;;;;0.70;0.50;;;;;;;;;;5055561;28;20523;-81
2022/06/20 15:10:50;;;;;;;0.80;0.70;;;;;;;;;;5038848;28;20451;-79
2022/06/20 15:13:23;;;;;;;1.20;0.90;;;;;;;;;;5054649;28;20440;-79
2022/06/20 15:15:52;;;;;;;0.70;0.50;;;;;;;;;;5055345;28;21005;-82
2022/06/20 15:18:25;;;;;;;0.70;0.50;;;;;;;;;;5055338;28;20494;-82
2022/06/20 15:20:56;;;;;;;1.33;1.23;;;;;;;;;;5072284;28;20444;-82
2022/06/20 15:23:26;;;;;;;0.80;0.67;;;;;;;;;;5054722;28;20455;-81